createdAt,value
2023-05-14T00:00:50.442Z,16.82
2023-05-14T00:03:18.157Z,17.23
2023-05-14T00:05:45.994Z,16.71
2023-05-14T00:08:13.662Z,16.55
2023-05-14T00:10:41.510Z,16.22
2023-05-14T00:13:09.569Z,15.89
2023-05-14T00:15:37.542Z,15.54
2023-05-14T00:18:06.311Z,16.13
2023-05-14T00:20:34.076Z,15.48
2023-05-14T00:23:01.770Z,15.96
2023-05-14T00:25:29.819Z,15.60
2023-05-14T00:27:57.551Z,15.62
2023-05-14T00:30:25.642Z,15.52
2023-05-14T00:32:54.551Z,15.99
2023-05-14T00:35:22.476Z,15.79
2023-05-14T00:37:50.323Z,15.67
2023-05-14T00:40:19.655Z,15.22
2023-05-14T00:42:47.366Z,15.12
2023-05-14T00:45:15.049Z,15.34
2023-05-14T00:47:43.499Z,15.76
2023-05-14T00:50:13.459Z,14.74
2023-05-14T00:52:42.026Z,15.36
2023-05-14T00:55:11.970Z,15.32
2023-05-14T00:57:40.798Z,15.36
2023-05-14T01:00:09.262Z,15.23
2023-05-14T01:02:37.376Z,15.31
2023-05-14T01:05:06.217Z,15.35
2023-05-14T01:07:49.402Z,15.24
2023-05-14T01:10:41.876Z,15.07
2023-05-14T01:13:22.688Z,15.08
2023-05-14T01:15:50.708Z,15.04
2023-05-14T01:18:20.320Z,15.43
2023-05-14T01:20:53.761Z,15.33
2023-05-14T01:23:21.676Z,15.25
2023-05-14T01:25:49.558Z,15.49
2023-05-14T01:28:34.397Z,15.34
2023-05-14T01:31:09.753Z,14.84
2023-05-14T01:33:42.440Z,15.08
2023-05-14T01:36:11.049Z,15.21
2023-05-14T01:38:40.005Z,15.38
2023-05-14T01:41:10.742Z,15.64
2023-05-14T01:43:39.814Z,16.53
2023-05-14T01:46:09.921Z,15.97
2023-05-14T01:48:38.006Z,15.72
2023-05-14T01:51:05.984Z,15.13
2023-05-14T01:53:34.991Z,15.08
2023-05-14T01:56:03.880Z,15.16
2023-05-14T01:58:32.067Z,15.37
2023-05-14T02:00:59.757Z,16.21
2023-05-14T02:03:27.635Z,16.66
2023-05-14T02:05:55.492Z,16.53
2023-05-14T02:08:23.600Z,16.26
2023-05-14T02:10:51.418Z,16.29
2023-05-14T02:13:19.382Z,16.33
2023-05-14T02:15:47.305Z,17.11
2023-05-14T02:18:15.118Z,16.94
2023-05-14T02:20:42.845Z,16.81
2023-05-14T02:23:10.608Z,16.67
2023-05-14T02:25:41.171Z,16.79
2023-05-14T02:28:08.981Z,16.88
2023-05-14T02:30:37.120Z,16.93
2023-05-14T02:33:05.037Z,16.41
2023-05-14T02:35:32.833Z,16.78
2023-05-14T02:38:00.945Z,16.66
2023-05-14T02:40:29.176Z,16.48
2023-05-14T02:42:57.019Z,16.61
2023-05-14T02:45:24.854Z,16.61
2023-05-14T02:47:52.891Z,17.30
2023-05-14T02:50:20.745Z,17.00
2023-05-14T02:52:48.826Z,17.01
2023-05-14T02:55:16.665Z,16.82
2023-05-14T02:57:44.615Z,17.37
2023-05-14T03:00:13.149Z,16.41
2023-05-14T03:02:42.256Z,16.71
2023-05-14T03:05:10.900Z,16.41
2023-05-14T03:07:39.093Z,16.31
2023-05-14T03:10:07.857Z,16.22
2023-05-14T03:12:35.565Z,16.37
2023-05-14T03:15:04.130Z,16.67
2023-05-14T03:17:31.865Z,16.32
2023-05-14T03:19:59.631Z,16.43
2023-05-14T03:22:28.053Z,16.39
2023-05-14T03:24:55.798Z,16.64
2023-05-14T03:27:23.649Z,17.27
2023-05-14T03:29:51.374Z,16.56
2023-05-14T03:32:19.591Z,16.23
2023-05-14T03:34:47.711Z,16.36
2023-05-14T03:37:15.427Z,16.58
2023-05-14T03:39:43.347Z,16.07
2023-05-14T03:42:11.038Z,16.22
2023-05-14T03:44:38.887Z,16.31
2023-05-14T03:47:07.011Z,16.52
2023-05-14T03:49:35.504Z,16.85
2023-05-14T03:52:07.948Z,16.37
2023-05-14T03:54:36.091Z,17.03
2023-05-14T03:57:04.131Z,16.96
2023-05-14T03:59:31.880Z,15.99
2023-05-14T04:02:02.016Z,17.36
2023-05-14T04:04:29.833Z,16.73
2023-05-14T04:06:57.565Z,17.10
2023-05-14T04:09:25.495Z,17.58
2023-05-14T04:11:53.277Z,17.40
2023-05-14T04:14:20.967Z,17.32
2023-05-14T04:16:49.187Z,18.10
2023-05-14T04:19:17.155Z,18.46
2023-05-14T04:21:45.391Z,16.87
2023-05-14T04:24:13.168Z,17.12
2023-05-14T04:26:40.859Z,16.78
2023-05-14T04:29:08.656Z,16.20
2023-05-14T04:31:36.578Z,16.03
2023-05-14T04:34:04.299Z,16.22
2023-05-14T04:36:32.479Z,15.89
2023-05-14T04:39:00.460Z,16.43
2023-05-14T04:41:28.440Z,15.74
2023-05-14T04:44:01.331Z,16.61
2023-05-14T04:46:29.344Z,17.19
2023-05-14T04:48:57.793Z,17.03
2023-05-14T04:51:26.393Z,17.02
2023-05-14T04:53:54.082Z,17.35
2023-05-14T04:56:22.054Z,17.85
2023-05-14T04:58:49.901Z,18.72
2023-05-14T05:01:17.692Z,20.46
2023-05-14T05:03:45.505Z,21.32
2023-05-14T05:06:13.354Z,20.59
2023-05-14T05:08:42.712Z,21.04
2023-05-14T05:11:10.395Z,20.11
2023-05-14T05:13:38.032Z,20.41
2023-05-14T05:16:06.486Z,20.92
2023-05-14T05:18:34.370Z,20.58
2023-05-14T05:21:02.118Z,20.51
2023-05-14T05:23:29.815Z,23.05
2023-05-14T05:25:57.544Z,24.94
2023-05-14T05:28:25.440Z,25.77
2023-05-14T05:30:53.425Z,26.21
2023-05-14T05:33:21.220Z,27.04
2023-05-14T05:35:50.164Z,28.28
2023-05-14T05:38:18.453Z,29.06
2023-05-14T05:40:46.159Z,29.88
2023-05-14T05:43:15.039Z,30.61
2023-05-14T05:45:42.764Z,29.98
2023-05-14T05:48:10.592Z,30.91
2023-05-14T05:50:38.711Z,32.39
2023-05-14T05:53:09.031Z,32.23
2023-05-14T05:55:37.406Z,33.62
2023-05-14T05:58:05.106Z,33.46
2023-05-14T06:00:33.307Z,34.51
2023-05-14T06:03:01.254Z,34.48
2023-05-14T06:05:29.341Z,34.05
2023-05-14T06:07:57.081Z,33.22
2023-05-14T06:10:25.125Z,33.64
2023-05-14T06:12:53.140Z,34.49
2023-05-14T06:15:21.676Z,35.55
2023-05-14T06:17:49.607Z,35.46
2023-05-14T06:20:17.560Z,36.06
2023-05-14T06:22:45.702Z,36.69
2023-05-14T06:25:13.448Z,36.69
2023-05-14T06:27:41.197Z,36.33
2023-05-14T06:30:09.625Z,35.55
2023-05-14T06:32:37.466Z,35.67
2023-05-14T06:35:06.473Z,36.63
2023-05-14T06:37:34.219Z,35.57
2023-05-14T06:40:02.605Z,36.19
2023-05-14T06:42:30.483Z,36.76
2023-05-14T06:44:59.305Z,38.42
2023-05-14T06:47:27.187Z,37.83
2023-05-14T06:49:56.036Z,36.96
2023-05-14T06:52:23.722Z,36.80
2023-05-14T06:54:51.434Z,36.77
2023-05-14T06:57:19.276Z,37.12
2023-05-14T06:59:47.048Z,37.51
2023-05-14T07:02:14.718Z,37.38
2023-05-14T07:04:42.504Z,37.94
2023-05-14T07:07:13.688Z,39.96
2023-05-14T07:09:42.635Z,39.65
2023-05-14T07:12:10.788Z,40.30
2023-05-14T07:14:38.909Z,40.03
2023-05-14T07:17:07.055Z,41.11
2023-05-14T07:19:34.801Z,41.28
2023-05-14T07:22:02.583Z,40.69
2023-05-14T07:24:30.415Z,41.89
2023-05-14T07:26:58.625Z,42.67
2023-05-14T07:29:26.380Z,42.60
2023-05-14T07:31:54.302Z,42.79
2023-05-14T07:34:22.015Z,43.27
2023-05-14T07:36:49.798Z,43.29
2023-05-14T07:39:17.552Z,43.20
2023-05-14T07:41:45.315Z,42.21
2023-05-14T07:44:13.314Z,42.22
2023-05-14T07:46:41.130Z,43.26
2023-05-14T07:49:09.156Z,42.89
2023-05-14T07:51:37.291Z,41.73
2023-05-14T07:54:05.757Z,42.54
2023-05-14T07:56:33.729Z,42.85
2023-05-14T07:59:01.548Z,43.32
2023-05-14T08:01:29.199Z,43.13
2023-05-14T08:03:57.155Z,42.73
2023-05-14T08:06:27.828Z,43.40
2023-05-14T08:08:55.533Z,42.73
2023-05-14T08:11:23.435Z,43.55
2023-05-14T08:13:51.213Z,42.70
2023-05-14T08:16:19.085Z,44.70
2023-05-14T08:18:47.201Z,44.75
2023-05-14T08:21:14.969Z,44.42
2023-05-14T08:23:42.624Z,44.45
2023-05-14T08:26:10.600Z,44.21
2023-05-14T08:28:38.413Z,45.64
2023-05-14T08:31:06.278Z,45.24
2023-05-14T08:33:34.048Z,46.46
2023-05-14T08:36:01.824Z,47.09
2023-05-14T08:38:29.817Z,46.35
2023-05-14T08:40:59.845Z,45.91
2023-05-14T08:43:44.397Z,46.13
2023-05-14T08:46:17.563Z,46.58
2023-05-14T08:48:54.889Z,46.82
2023-05-14T08:51:23.200Z,47.46
2023-05-14T08:53:51.328Z,48.18
2023-05-14T08:56:20.055Z,48.03
2023-05-14T08:58:47.855Z,47.59
2023-05-14T09:01:15.529Z,49.30
2023-05-14T09:03:43.799Z,50.24
2023-05-14T09:06:13.146Z,51.46
2023-05-14T09:08:41.082Z,51.34
2023-05-14T09:11:08.936Z,51.87
2023-05-14T09:13:39.514Z,53.37
2023-05-14T09:16:07.926Z,51.93
2023-05-14T09:18:37.734Z,52.06
2023-05-14T09:21:05.919Z,52.80
2023-05-14T09:23:34.753Z,52.57
2023-05-14T09:26:09.050Z,52.67
2023-05-14T09:28:40.204Z,53.79
2023-05-14T09:31:09.769Z,52.92
2023-05-14T09:33:37.813Z,53.07
2023-05-14T09:36:05.846Z,51.58
2023-05-14T09:38:34.449Z,50.33
2023-05-14T09:41:02.204Z,49.65
2023-05-14T09:43:29.967Z,50.49
2023-05-14T09:45:57.707Z,50.35
2023-05-14T09:48:26.397Z,48.86
2023-05-14T09:50:54.213Z,49.39
2023-05-14T09:53:22.159Z,48.48
2023-05-14T09:55:50.148Z,47.99
2023-05-14T09:58:17.853Z,47.79
2023-05-14T10:00:47.856Z,49.32
2023-05-14T10:03:19.705Z,48.56
2023-05-14T10:05:51.251Z,46.75
2023-05-14T10:08:34.260Z,45.01
2023-05-14T10:11:08.444Z,46.50
2023-05-14T10:13:46.566Z,46.62
2023-05-14T10:16:23.613Z,46.27
2023-05-14T10:18:57.576Z,45.02
2023-05-14T10:21:30.664Z,44.61
2023-05-14T10:23:59.080Z,45.76
2023-05-14T10:26:28.064Z,46.57
2023-05-14T10:28:56.578Z,45.99
2023-05-14T10:31:44.411Z,44.07
2023-05-14T10:34:38.769Z,44.95
2023-05-14T10:37:10.157Z,43.34
2023-05-14T10:39:45.830Z,42.80
2023-05-14T10:42:29.202Z,41.55
2023-05-14T10:44:59.756Z,42.11
2023-05-14T10:47:28.766Z,42.29
2023-05-14T10:49:58.892Z,42.52
2023-05-14T10:52:27.217Z,41.45
2023-05-14T10:55:02.649Z,42.05
2023-05-14T10:57:32.499Z,40.41
2023-05-14T11:00:03.041Z,39.73
2023-05-14T11:02:39.328Z,41.82
2023-05-14T11:05:14.407Z,41.38
2023-05-14T11:07:48.037Z,41.56
2023-05-14T11:10:18.624Z,41.74
2023-05-14T11:12:52.321Z,40.33
2023-05-14T11:15:23.170Z,41.08
2023-05-14T11:17:53.089Z,40.32
2023-05-14T11:20:22.381Z,40.05
2023-05-14T11:22:51.905Z,38.63
2023-05-14T11:25:20.602Z,37.10
2023-05-14T11:27:50.099Z,39.18
2023-05-14T11:30:19.987Z,38.55
2023-05-14T11:32:50.469Z,38.17
2023-05-14T11:35:19.195Z,38.50
2023-05-14T11:37:55.591Z,38.18
2023-05-14T11:40:23.662Z,39.02
2023-05-14T11:42:54.943Z,35.19
2023-05-14T11:45:27.371Z,35.38
2023-05-14T11:47:55.606Z,33.89
2023-05-14T11:50:24.058Z,31.61
2023-05-14T11:52:57.058Z,32.47
2023-05-14T11:55:25.304Z,33.84
2023-05-14T11:57:55.628Z,31.31
2023-05-14T12:00:24.755Z,33.48
2023-05-14T12:02:53.254Z,32.00
2023-05-14T12:05:21.962Z,33.58
2023-05-14T12:07:49.976Z,34.47
2023-05-14T12:10:17.963Z,31.93
2023-05-14T12:12:49.721Z,31.62
2023-05-14T12:15:18.383Z,30.57
2023-05-14T12:17:52.381Z,24.74
2023-05-14T12:20:20.212Z,24.41
2023-05-14T12:22:48.349Z,28.98
2023-05-14T12:25:16.127Z,26.50
2023-05-14T12:27:49.127Z,25.44
2023-05-14T12:30:27.555Z,22.74
2023-05-14T12:32:55.860Z,22.60
2023-05-14T12:35:24.081Z,20.82
2023-05-14T12:37:52.115Z,21.42
2023-05-14T12:40:20.261Z,20.23
2023-05-14T12:42:48.502Z,21.14
2023-05-14T12:45:16.381Z,21.99
2023-05-14T12:47:44.060Z,22.86
2023-05-14T12:50:12.141Z,23.66
2023-05-14T12:52:40.250Z,22.51
2023-05-14T12:55:09.870Z,21.58
2023-05-14T12:57:39.449Z,20.83
2023-05-14T13:00:13.019Z,18.74
2023-05-14T13:02:49.359Z,17.05
2023-05-14T13:05:17.333Z,15.84
2023-05-14T13:07:45.111Z,16.27
2023-05-14T13:10:13.406Z,15.29
2023-05-14T13:12:41.502Z,14.35
2023-05-14T13:15:09.788Z,13.30
2023-05-14T13:17:37.706Z,11.77
2023-05-14T13:20:06.801Z,11.46
2023-05-14T13:22:34.513Z,12.29
2023-05-14T13:25:03.399Z,12.69
2023-05-14T13:27:31.144Z,13.82
2023-05-14T13:29:59.545Z,13.07
2023-05-14T13:32:27.451Z,13.81
2023-05-14T13:34:55.272Z,12.84
2023-05-14T13:37:23.107Z,12.53
2023-05-14T13:39:51.497Z,11.87
2023-05-14T13:42:19.600Z,9.84
2023-05-14T13:44:47.308Z,10.32
2023-05-14T13:47:15.061Z,10.85
2023-05-14T13:49:43.042Z,9.93
2023-05-14T13:52:10.812Z,10.43
2023-05-14T13:54:38.537Z,9.69
2023-05-14T13:57:06.897Z,10.41
2023-05-14T13:59:34.964Z,11.22
2023-05-14T14:02:03.205Z,10.66
2023-05-14T14:04:31.116Z,9.74
2023-05-14T14:06:58.943Z,9.67
2023-05-14T14:09:26.765Z,10.36
2023-05-14T14:11:54.673Z,11.46
2023-05-14T14:14:22.388Z,12.34
2023-05-14T14:16:50.088Z,12.68
2023-05-14T14:19:18.629Z,11.60
2023-05-14T14:21:46.858Z,9.54
2023-05-14T14:24:14.607Z,9.76
2023-05-14T14:26:42.267Z,9.35
2023-05-14T14:29:10.099Z,10.54
2023-05-14T14:31:38.409Z,11.86
2023-05-14T14:34:09.350Z,13.04
2023-05-14T14:36:37.491Z,12.57
2023-05-14T14:39:07.798Z,11.80
2023-05-14T14:41:36.080Z,11.38
2023-05-14T14:44:03.970Z,11.29
2023-05-14T14:46:32.709Z,11.97
2023-05-14T14:49:00.549Z,11.69
2023-05-14T14:51:30.317Z,12.06
2023-05-14T14:53:58.119Z,11.50
2023-05-14T14:56:28.238Z,12.36
2023-05-14T14:58:55.949Z,12.49
2023-05-14T15:01:23.699Z,12.01
2023-05-14T15:03:51.596Z,12.49
2023-05-14T15:06:19.363Z,14.33
2023-05-14T15:08:47.060Z,13.72
2023-05-14T15:11:15.486Z,13.60
2023-05-14T15:13:43.314Z,13.91
2023-05-14T15:16:12.525Z,13.26
2023-05-14T15:18:40.960Z,13.18
2023-05-14T15:21:08.741Z,14.38
2023-05-14T15:23:39.704Z,12.75
2023-05-14T15:26:10.876Z,12.45
2023-05-14T15:28:38.625Z,11.99
2023-05-14T15:31:07.489Z,12.06
2023-05-14T15:33:36.135Z,11.30
2023-05-14T15:36:03.983Z,10.02
2023-05-14T15:38:31.792Z,9.92
2023-05-14T15:40:59.735Z,9.30
2023-05-14T15:43:27.414Z,9.42
2023-05-14T15:45:55.175Z,8.49
2023-05-14T15:48:23.099Z,8.72
2023-05-14T15:50:51.700Z,8.40
2023-05-14T15:53:19.554Z,8.69
2023-05-14T15:55:49.152Z,9.02
2023-05-14T15:58:16.848Z,8.94
2023-05-14T16:00:44.478Z,9.19
2023-05-14T16:03:12.747Z,8.97
2023-05-14T16:05:42.683Z,8.86
2023-05-14T16:08:10.425Z,7.94
2023-05-14T16:10:38.171Z,7.54
2023-05-14T16:13:06.168Z,7.35
2023-05-14T16:15:33.962Z,7.56
2023-05-14T16:18:01.828Z,7.76
2023-05-14T16:20:29.508Z,7.97
2023-05-14T16:22:57.215Z,7.42
2023-05-14T16:25:25.176Z,6.80
2023-05-14T16:27:53.011Z,7.02
2023-05-14T16:30:20.706Z,7.32
2023-05-14T16:32:49.566Z,8.08
2023-05-14T16:35:17.501Z,7.65
2023-05-14T16:37:45.439Z,7.76
2023-05-14T16:40:13.771Z,7.98
2023-05-14T16:42:41.574Z,7.65
2023-05-14T16:45:09.873Z,7.04
2023-05-14T16:47:37.760Z,7.56
2023-05-14T16:50:05.983Z,7.86
2023-05-14T16:52:34.338Z,7.77
2023-05-14T16:55:02.108Z,7.23
2023-05-14T16:57:29.945Z,7.34
2023-05-14T16:59:57.676Z,7.11
2023-05-14T17:02:25.689Z,6.77
2023-05-14T17:04:55.336Z,7.44
2023-05-14T17:07:23.207Z,7.32
2023-05-14T17:09:50.875Z,6.75
2023-05-14T17:12:18.581Z,6.64
2023-05-14T17:14:46.201Z,6.62
2023-05-14T17:17:13.885Z,6.82
2023-05-14T17:19:42.398Z,6.32
2023-05-14T17:22:10.953Z,6.13
2023-05-14T17:24:39.244Z,6.32
2023-05-14T17:27:07.522Z,6.49
2023-05-14T17:29:36.554Z,6.47
2023-05-14T17:32:05.055Z,6.08
2023-05-14T17:34:33.552Z,6.31
2023-05-14T17:37:01.247Z,7.24
2023-05-14T17:39:29.203Z,7.81
2023-05-14T17:41:56.957Z,6.51
2023-05-14T17:44:24.649Z,6.32
2023-05-14T17:46:52.402Z,6.16
2023-05-14T17:49:20.333Z,6.54
2023-05-14T17:51:48.138Z,6.31
2023-05-14T17:54:16.269Z,6.64
2023-05-14T17:56:44.327Z,6.83
2023-05-14T17:59:13.048Z,7.65
2023-05-14T18:01:41.366Z,7.65
2023-05-14T18:04:09.150Z,7.70
2023-05-14T18:06:37.123Z,8.25
2023-05-14T18:09:04.960Z,7.90
2023-05-14T18:11:34.040Z,7.91
2023-05-14T18:14:02.291Z,7.69
2023-05-14T18:16:30.690Z,9.01
2023-05-14T18:19:00.405Z,10.30
2023-05-14T18:21:28.288Z,8.43
2023-05-14T18:23:56.279Z,7.92
2023-05-14T18:26:24.172Z,7.93
2023-05-14T18:28:52.718Z,8.00
2023-05-14T18:31:20.523Z,7.86
2023-05-14T18:33:48.477Z,7.56
2023-05-14T18:36:17.631Z,7.30
2023-05-14T18:38:45.448Z,8.22
2023-05-14T18:41:13.179Z,8.04
2023-05-14T18:43:41.190Z,8.31
2023-05-14T18:46:09.033Z,8.05
2023-05-14T18:48:37.216Z,8.66
2023-05-14T18:51:05.907Z,8.21
2023-05-14T18:53:33.837Z,8.30
2023-05-14T18:56:01.676Z,8.09
2023-05-14T18:58:29.618Z,7.80
2023-05-14T19:00:59.096Z,8.24
2023-05-14T19:03:27.155Z,7.92
2023-05-14T19:05:55.351Z,8.08
2023-05-14T19:08:23.219Z,8.29
2023-05-14T19:10:51.276Z,8.15
2023-05-14T19:13:18.971Z,8.22
2023-05-14T19:15:47.016Z,8.15
2023-05-14T19:18:14.921Z,8.09
2023-05-14T19:20:42.775Z,8.23
2023-05-14T19:23:10.649Z,8.40
2023-05-14T19:25:38.522Z,8.18
2023-05-14T19:28:09.970Z,8.21
2023-05-14T19:30:38.452Z,8.44
2023-05-14T19:33:06.395Z,8.74
2023-05-14T19:35:34.467Z,8.68
2023-05-14T19:38:02.231Z,8.89
2023-05-14T19:40:29.957Z,8.39
2023-05-14T19:42:57.926Z,8.90
2023-05-14T19:45:26.014Z,9.06
2023-05-14T19:47:54.183Z,8.79
2023-05-14T19:50:21.859Z,8.56
2023-05-14T19:52:49.710Z,9.39
2023-05-14T19:55:20.773Z,9.07
2023-05-14T19:57:48.372Z,8.60
2023-05-14T20:00:19.032Z,9.01
2023-05-14T20:02:48.055Z,8.90
2023-05-14T20:05:16.864Z,9.22
2023-05-14T20:07:45.032Z,9.30
2023-05-14T20:10:14.125Z,9.50
2023-05-14T20:12:41.865Z,9.71
2023-05-14T20:15:09.965Z,9.51
2023-05-14T20:17:39.610Z,9.54
2023-05-14T20:20:10.026Z,9.31
2023-05-14T20:22:38.357Z,9.91
2023-05-14T20:25:07.171Z,9.85
2023-05-14T20:27:35.281Z,9.76
2023-05-14T20:30:03.840Z,9.67
2023-05-14T20:32:31.666Z,9.79
2023-05-14T20:35:02.273Z,9.93
2023-05-14T20:37:31.357Z,10.37
2023-05-14T20:40:00.945Z,10.85
2023-05-14T20:42:29.590Z,11.36
2023-05-14T20:44:58.620Z,11.83
2023-05-14T20:47:28.957Z,11.96
2023-05-14T20:49:56.721Z,12.55
2023-05-14T20:52:24.432Z,13.05
2023-05-14T20:54:52.793Z,13.03
2023-05-14T20:57:20.693Z,13.04
2023-05-14T20:59:49.039Z,13.71
2023-05-14T21:02:17.697Z,13.81
2023-05-14T21:04:46.392Z,13.73
2023-05-14T21:07:14.291Z,13.70
2023-05-14T21:09:42.316Z,13.73
2023-05-14T21:12:10.525Z,14.28
2023-05-14T21:14:38.534Z,14.41
2023-05-14T21:17:06.840Z,15.41
2023-05-14T21:19:34.599Z,15.31
2023-05-14T21:22:02.910Z,14.60
2023-05-14T21:24:30.626Z,14.76
2023-05-14T21:26:58.605Z,15.50
2023-05-14T21:29:26.294Z,15.81
2023-05-14T21:31:54.414Z,15.78
2023-05-14T21:34:22.214Z,16.73
2023-05-14T21:36:50.147Z,18.11
2023-05-14T21:39:17.906Z,17.82
2023-05-14T21:41:45.782Z,19.15
2023-05-14T21:44:13.557Z,19.80
2023-05-14T21:46:41.422Z,19.40
2023-05-14T21:49:09.119Z,19.57
2023-05-14T21:51:37.194Z,21.01
2023-05-14T21:54:05.189Z,20.59
2023-05-14T21:56:34.855Z,20.63
2023-05-14T21:59:03.083Z,21.57
2023-05-14T22:01:32.586Z,22.79
2023-05-14T22:04:01.520Z,22.60
2023-05-14T22:06:29.507Z,22.90
2023-05-14T22:08:57.333Z,23.49
2023-05-14T22:11:25.034Z,24.18
2023-05-14T22:13:52.801Z,23.70
2023-05-14T22:16:22.391Z,23.78
2023-05-14T22:18:50.184Z,23.43
2023-05-14T22:21:17.993Z,23.87
2023-05-14T22:23:45.809Z,23.66
2023-05-14T22:26:13.867Z,24.70
2023-05-14T22:28:43.142Z,23.97
2023-05-14T22:31:11.627Z,24.52
2023-05-14T22:33:39.485Z,24.64
2023-05-14T22:36:07.638Z,24.50
2023-05-14T22:38:37.305Z,26.22
2023-05-14T22:41:05.123Z,26.00
2023-05-14T22:43:32.847Z,26.79
2023-05-14T22:46:00.764Z,26.48
2023-05-14T22:48:28.462Z,26.39
2023-05-14T22:50:56.356Z,27.45
2023-05-14T22:53:25.139Z,27.69
2023-05-14T22:55:53.434Z,27.55
2023-05-14T22:58:21.045Z,28.94
2023-05-14T23:00:48.953Z,29.39
2023-05-14T23:03:16.974Z,29.95
2023-05-14T23:05:44.655Z,31.16
2023-05-14T23:08:12.493Z,29.59
2023-05-14T23:10:40.428Z,29.27
2023-05-14T23:13:08.185Z,30.39
2023-05-14T23:15:36.030Z,30.32
2023-05-14T23:18:03.978Z,31.76
2023-05-14T23:20:31.628Z,30.84
2023-05-14T23:22:59.356Z,30.32
2023-05-14T23:25:27.160Z,30.75
2023-05-14T23:27:55.026Z,31.63
2023-05-14T23:30:22.825Z,31.01
2023-05-14T23:32:50.783Z,31.86
2023-05-14T23:35:18.934Z,31.39
2023-05-14T23:37:49.496Z,31.31
2023-05-14T23:40:17.712Z,32.40
2023-05-14T23:42:45.425Z,32.16
2023-05-14T23:45:13.980Z,33.05
2023-05-14T23:47:42.747Z,31.66
2023-05-14T23:50:10.853Z,32.34
2023-05-14T23:52:39.164Z,32.19
2023-05-14T23:55:07.349Z,32.61
2023-05-14T23:57:35.890Z,33.97
